IGO882 VOMM-VIDP
Flight info
| Callsign | IGO882 |
|---|---|
| Flight time | N/A |
| Altitude | 38000 |
| Route | KAMGU2B KAMGU Q24 BAVOX BAVOX7E |
| Aircraft | A320/M-SDE3FGHIRWY/LB1 |
Departure
| Time | N/A |
|---|---|
| Airport | Chennai International Airport (VOMM) |
Arrival
| Time | 2026-05-07 05:25 |
|---|---|
| Airport | Indira Gandhi International Airport (VIDP) |
| Time | Latitude | Longitude | Altitude | Speed | Heading |
|---|---|---|---|---|---|
| 2026-05-07 02:57 | 13.51711 | 80.05755 | 12192 ft | 347 kts | 338° |
| 2026-05-07 02:57 | 13.53942 | 80.04783 | 12851 ft | 350 kts | 338° |
| 2026-05-07 02:58 | 13.56195 | 80.03802 | 13483 ft | 353 kts | 338° |
| 2026-05-07 02:58 | 13.58465 | 80.02812 | 14097 ft | 356 kts | 338° |
| 2026-05-07 02:58 | 13.60760 | 80.01812 | 14687 ft | 359 kts | 338° |
| 2026-05-07 02:58 | 13.63072 | 80.00807 | 15259 ft | 363 kts | 338° |
| 2026-05-07 02:59 | 13.65405 | 79.99791 | 15838 ft | 366 kts | 337° |
| 2026-05-07 02:59 | 13.67755 | 79.98767 | 16409 ft | 369 kts | 337° |
| 2026-05-07 02:59 | 13.70133 | 79.97734 | 16949 ft | 372 kts | 337° |
| 2026-05-07 02:59 | 13.72529 | 79.96692 | 17489 ft | 375 kts | 337° |
| 2026-05-07 03:00 | 13.74945 | 79.95643 | 18014 ft | 379 kts | 337° |
| 2026-05-07 03:00 | 13.77389 | 79.94583 | 18513 ft | 383 kts | 337° |
| 2026-05-07 03:00 | 13.79857 | 79.93512 | 19002 ft | 387 kts | 336° |
| 2026-05-07 03:00 | 13.82346 | 79.92430 | 19520 ft | 389 kts | 336° |
| 2026-05-07 03:01 | 13.84846 | 79.91337 | 20006 ft | 391 kts | 336° |
| 2026-05-07 03:01 | 13.87364 | 79.90234 | 20405 ft | 396 kts | 336° |
| 2026-05-07 03:01 | 13.89915 | 79.89117 | 20807 ft | 400 kts | 336° |
| 2026-05-07 03:01 | 13.92451 | 79.88008 | 21234 ft | 403 kts | 336° |
| 2026-05-07 03:02 | 13.95046 | 79.86881 | 21666 ft | 406 kts | 336° |
| 2026-05-07 03:02 | 13.97653 | 79.85751 | 22083 ft | 408 kts | 336° |
| 2026-05-07 03:02 | 14.00276 | 79.84610 | 22477 ft | 410 kts | 336° |
| 2026-05-07 03:02 | 14.02913 | 79.83460 | 22881 ft | 412 kts | 336° |
| 2026-05-07 03:03 | 14.05561 | 79.82305 | 23278 ft | 414 kts | 336° |
| 2026-05-07 03:03 | 14.08225 | 79.81145 | 23646 ft | 417 kts | 336° |
| 2026-05-07 03:03 | 14.10904 | 79.79975 | 24010 ft | 419 kts | 336° |
| 2026-05-07 03:03 | 14.13591 | 79.78801 | 24363 ft | 421 kts | 336° |
| 2026-05-07 03:04 | 14.16300 | 79.77618 | 24707 ft | 423 kts | 336° |
| 2026-05-07 03:04 | 14.19017 | 79.76431 | 25051 ft | 425 kts | 335° |
| 2026-05-07 03:04 | 14.21742 | 79.75238 | 25394 ft | 427 kts | 335° |
| 2026-05-07 03:04 | 14.24480 | 79.74039 | 25731 ft | 428 kts | 335° |
| 2026-05-07 03:05 | 14.27236 | 79.72833 | 26053 ft | 430 kts | 335° |
| 2026-05-07 03:05 | 14.30000 | 79.71627 | 26388 ft | 432 kts | 335° |
| 2026-05-07 03:05 | 14.32778 | 79.70414 | 26713 ft | 434 kts | 335° |
| 2026-05-07 03:05 | 14.35531 | 79.69213 | 27028 ft | 436 kts | 335° |
| 2026-05-07 03:06 | 14.38338 | 79.67984 | 27342 ft | 438 kts | 335° |
| 2026-05-07 03:06 | 14.41152 | 79.66749 | 27659 ft | 440 kts | 335° |
| 2026-05-07 03:06 | 14.43972 | 79.65511 | 27954 ft | 442 kts | 335° |
| 2026-05-07 03:06 | 14.46810 | 79.64269 | 28247 ft | 443 kts | 335° |
| 2026-05-07 03:07 | 14.49657 | 79.63022 | 28542 ft | 445 kts | 335° |
| 2026-05-07 03:07 | 14.52515 | 79.61769 | 28829 ft | 447 kts | 335° |
| 2026-05-07 03:07 | 14.55382 | 79.60511 | 29128 ft | 449 kts | 335° |
| 2026-05-07 03:07 | 14.58260 | 79.59248 | 29420 ft | 451 kts | 335° |
| 2026-05-07 03:08 | 14.61155 | 79.57978 | 29716 ft | 453 kts | 335° |
| 2026-05-07 03:08 | 14.64059 | 79.56705 | 30024 ft | 455 kts | 335° |
| 2026-05-07 03:08 | 14.66977 | 79.55424 | 30293 ft | 456 kts | 335° |
| 2026-05-07 03:08 | 14.69907 | 79.54138 | 30558 ft | 459 kts | 335° |
| 2026-05-07 03:09 | 14.72849 | 79.52844 | 30819 ft | 461 kts | 335° |
| 2026-05-07 03:09 | 14.75808 | 79.51544 | 31084 ft | 463 kts | 335° |
| 2026-05-07 03:09 | 14.78782 | 79.50237 | 31375 ft | 465 kts | 335° |
| 2026-05-07 03:09 | 14.81716 | 79.48948 | 31749 ft | 464 kts | 335° |
| 2026-05-07 03:10 | 14.84686 | 79.47645 | 32131 ft | 463 kts | 335° |
| 2026-05-07 03:10 | 14.87655 | 79.46344 | 32505 ft | 463 kts | 335° |
| 2026-05-07 03:10 | 14.90623 | 79.45039 | 32878 ft | 462 kts | 335° |
| 2026-05-07 03:10 | 14.93586 | 79.43732 | 33246 ft | 462 kts | 335° |
| 2026-05-07 03:11 | 14.96551 | 79.42438 | 33613 ft | 463 kts | 337° |
| 2026-05-07 03:11 | 14.99635 | 79.41474 | 33962 ft | 464 kts | 345° |
| 2026-05-07 03:11 | 15.02780 | 79.40719 | 34313 ft | 464 kts | 345° |
| 2026-05-07 03:11 | 15.05928 | 79.39963 | 34654 ft | 463 kts | 345° |
| 2026-05-07 03:12 | 15.09030 | 79.39216 | 35000 ft | 463 kts | 345° |
| 2026-05-07 03:12 | 15.12162 | 79.38457 | 35334 ft | 462 kts | 345° |
| 2026-05-07 03:12 | 15.15297 | 79.37699 | 35659 ft | 462 kts | 345° |
| 2026-05-07 03:12 | 15.18432 | 79.36942 | 35975 ft | 461 kts | 345° |
| 2026-05-07 03:13 | 15.21553 | 79.36189 | 36273 ft | 461 kts | 345° |
| 2026-05-07 03:13 | 15.24673 | 79.35433 | 36545 ft | 460 kts | 345° |
| 2026-05-07 03:13 | 15.27793 | 79.34673 | 36835 ft | 460 kts | 345° |
| 2026-05-07 03:13 | 15.30902 | 79.33918 | 37158 ft | 458 kts | 345° |
| 2026-05-07 03:14 | 15.33997 | 79.33170 | 37517 ft | 456 kts | 345° |
| 2026-05-07 03:14 | 15.37082 | 79.32424 | 37837 ft | 455 kts | 345° |
| 2026-05-07 03:15 | 15.46314 | 79.30187 | 37937 ft | 454 kts | 345° |
| 2026-05-07 03:15 | 15.52464 | 79.28694 | 37906 ft | 453 kts | 345° |
| 2026-05-07 03:16 | 15.58567 | 79.27209 | 37915 ft | 453 kts | 345° |
| 2026-05-07 03:16 | 15.64718 | 79.25712 | 37915 ft | 453 kts | 345° |
| 2026-05-07 03:17 | 15.70861 | 79.24213 | 37919 ft | 453 kts | 345° |
| 2026-05-07 03:17 | 15.77008 | 79.22720 | 37922 ft | 454 kts | 345° |
| 2026-05-07 03:18 | 15.83151 | 79.21228 | 37928 ft | 454 kts | 345° |
| 2026-05-07 03:18 | 15.89306 | 79.19730 | 37932 ft | 454 kts | 345° |
| 2026-05-07 03:19 | 15.95428 | 79.18238 | 37934 ft | 454 kts | 345° |
| 2026-05-07 03:19 | 16.01579 | 79.16731 | 37941 ft | 454 kts | 345° |
| 2026-05-07 03:20 | 16.07737 | 79.15243 | 37940 ft | 454 kts | 345° |
| 2026-05-07 03:20 | 16.13891 | 79.13769 | 37947 ft | 454 kts | 345° |
| 2026-05-07 03:21 | 16.20040 | 79.12284 | 37946 ft | 454 kts | 345° |
| 2026-05-07 03:21 | 16.26193 | 79.10799 | 37946 ft | 453 kts | 345° |
| 2026-05-07 03:22 | 16.32344 | 79.09318 | 37958 ft | 454 kts | 345° |
| 2026-05-07 03:22 | 16.38491 | 79.07831 | 37963 ft | 453 kts | 344° |
| 2026-05-07 03:23 | 16.44639 | 79.06340 | 37961 ft | 453 kts | 344° |
| 2026-05-07 03:23 | 16.50787 | 79.04850 | 37967 ft | 453 kts | 344° |
| 2026-05-07 03:24 | 16.56931 | 79.03363 | 37961 ft | 454 kts | 344° |
| 2026-05-07 03:24 | 16.63086 | 79.01866 | 37978 ft | 454 kts | 344° |
| 2026-05-07 03:25 | 16.69234 | 79.00368 | 37983 ft | 454 kts | 344° |
| 2026-05-07 03:25 | 16.75382 | 78.98874 | 37987 ft | 453 kts | 344° |
| 2026-05-07 03:26 | 16.81518 | 78.97380 | 37990 ft | 453 kts | 344° |
| 2026-05-07 03:26 | 16.87655 | 78.95887 | 37992 ft | 453 kts | 344° |
| 2026-05-07 03:27 | 16.93790 | 78.94400 | 37995 ft | 453 kts | 344° |
| 2026-05-07 03:27 | 16.99886 | 78.92922 | 38000 ft | 452 kts | 344° |
| 2026-05-07 03:28 | 17.06054 | 78.91420 | 38005 ft | 452 kts | 344° |
| 2026-05-07 03:28 | 17.12180 | 78.89920 | 38007 ft | 452 kts | 344° |
| 2026-05-07 03:29 | 17.18269 | 78.88434 | 38009 ft | 452 kts | 344° |
| 2026-05-07 03:29 | 17.24395 | 78.86935 | 38016 ft | 451 kts | 344° |
| 2026-05-07 03:30 | 17.30513 | 78.85438 | 38015 ft | 451 kts | 344° |
| 2026-05-07 03:30 | 17.36628 | 78.83938 | 38013 ft | 451 kts | 343° |
| 2026-05-07 03:31 | 17.42734 | 78.82445 | 38013 ft | 450 kts | 343° |
| 2026-05-07 03:31 | 17.48831 | 78.80955 | 38016 ft | 450 kts | 343° |
| 2026-05-07 03:32 | 17.54891 | 78.79488 | 38017 ft | 449 kts | 344° |
| 2026-05-07 03:32 | 17.60983 | 78.78014 | 38014 ft | 449 kts | 344° |
| 2026-05-07 03:33 | 17.67075 | 78.76538 | 38014 ft | 449 kts | 344° |
| 2026-05-07 03:33 | 17.73160 | 78.75056 | 38011 ft | 449 kts | 343° |
| 2026-05-07 03:34 | 17.79248 | 78.73577 | 38013 ft | 449 kts | 343° |
| 2026-05-07 03:34 | 17.85327 | 78.72100 | 38016 ft | 448 kts | 343° |
| 2026-05-07 03:35 | 17.91413 | 78.70624 | 38012 ft | 448 kts | 343° |
| 2026-05-07 03:35 | 17.97492 | 78.69144 | 38010 ft | 448 kts | 343° |
| 2026-05-07 03:36 | 18.03527 | 78.67668 | 38011 ft | 447 kts | 343° |
| 2026-05-07 03:36 | 18.09592 | 78.66187 | 38011 ft | 447 kts | 343° |
| 2026-05-07 03:37 | 18.15648 | 78.64706 | 38005 ft | 446 kts | 343° |
| 2026-05-07 03:37 | 18.20672 | 78.63460 | 38002 ft | 446 kts | 343° |
| 2026-05-07 03:38 | 18.26711 | 78.61956 | 38001 ft | 445 kts | 343° |
| 2026-05-07 03:38 | 18.32747 | 78.60461 | 37997 ft | 445 kts | 343° |
| 2026-05-07 03:39 | 18.38780 | 78.58968 | 37991 ft | 445 kts | 343° |
| 2026-05-07 03:39 | 18.44807 | 78.57470 | 37991 ft | 445 kts | 343° |
| 2026-05-07 03:40 | 18.50837 | 78.55972 | 37988 ft | 445 kts | 343° |
| 2026-05-07 03:40 | 18.56859 | 78.54472 | 37983 ft | 445 kts | 343° |
| 2026-05-07 03:41 | 18.62841 | 78.52984 | 37982 ft | 445 kts | 343° |
| 2026-05-07 03:41 | 18.68875 | 78.51480 | 37979 ft | 445 kts | 343° |
| 2026-05-07 03:42 | 18.74898 | 78.49977 | 37977 ft | 444 kts | 342° |
| 2026-05-07 03:42 | 18.80916 | 78.48476 | 37966 ft | 444 kts | 342° |
| 2026-05-07 03:43 | 18.86921 | 78.46982 | 37971 ft | 443 kts | 342° |
| 2026-05-07 03:43 | 18.92920 | 78.45483 | 37957 ft | 443 kts | 342° |
| 2026-05-07 03:44 | 18.98918 | 78.43978 | 37968 ft | 442 kts | 342° |
| 2026-05-07 03:44 | 19.04911 | 78.42484 | 37972 ft | 442 kts | 342° |
| 2026-05-07 03:45 | 19.10858 | 78.41001 | 37973 ft | 442 kts | 342° |
| 2026-05-07 03:45 | 19.16838 | 78.39502 | 37969 ft | 441 kts | 342° |
| 2026-05-07 03:46 | 19.22803 | 78.37968 | 37965 ft | 440 kts | 341° |
| 2026-05-07 03:46 | 19.28731 | 78.36388 | 37965 ft | 439 kts | 341° |
| 2026-05-07 03:47 | 19.34658 | 78.34804 | 37957 ft | 439 kts | 341° |
| 2026-05-07 03:47 | 19.40584 | 78.33236 | 37962 ft | 438 kts | 341° |
| 2026-05-07 03:48 | 19.46502 | 78.31683 | 37963 ft | 438 kts | 341° |
| 2026-05-07 03:48 | 19.52411 | 78.30121 | 37954 ft | 437 kts | 341° |
| 2026-05-07 03:49 | 19.58278 | 78.28568 | 37959 ft | 437 kts | 341° |
| 2026-05-07 03:49 | 19.64168 | 78.27027 | 37954 ft | 436 kts | 341° |
| 2026-05-07 03:50 | 19.70067 | 78.25487 | 37950 ft | 436 kts | 341° |
| 2026-05-07 03:50 | 19.75949 | 78.23950 | 37950 ft | 434 kts | 341° |
| 2026-05-07 03:51 | 19.81816 | 78.22405 | 37958 ft | 434 kts | 341° |
| 2026-05-07 03:51 | 19.87676 | 78.20861 | 37955 ft | 433 kts | 341° |
| 2026-05-07 03:52 | 19.93529 | 78.19321 | 37957 ft | 433 kts | 341° |
| 2026-05-07 03:52 | 19.99351 | 78.17799 | 37958 ft | 433 kts | 341° |
| 2026-05-07 03:53 | 20.05193 | 78.16263 | 37955 ft | 433 kts | 341° |
| 2026-05-07 03:53 | 20.11044 | 78.14718 | 37960 ft | 433 kts | 341° |
| 2026-05-07 03:54 | 20.16891 | 78.13174 | 37956 ft | 432 kts | 341° |
| 2026-05-07 03:54 | 20.22738 | 78.11630 | 37958 ft | 432 kts | 341° |
| 2026-05-07 03:55 | 20.28578 | 78.10087 | 37965 ft | 433 kts | 341° |
| 2026-05-07 03:55 | 20.34421 | 78.08542 | 37961 ft | 433 kts | 341° |
| 2026-05-07 03:56 | 20.40228 | 78.07003 | 37956 ft | 433 kts | 341° |
| 2026-05-07 03:56 | 20.46071 | 78.05455 | 37964 ft | 433 kts | 341° |
| 2026-05-07 03:57 | 20.51916 | 78.03904 | 37950 ft | 433 kts | 341° |
| 2026-05-07 03:57 | 20.57761 | 78.02363 | 37964 ft | 433 kts | 341° |
| 2026-05-07 03:58 | 20.63638 | 78.00903 | 37953 ft | 434 kts | 342° |
| 2026-05-07 03:58 | 20.69525 | 77.99488 | 37965 ft | 434 kts | 342° |
| 2026-05-07 03:59 | 20.75414 | 77.98064 | 37952 ft | 433 kts | 342° |
| 2026-05-07 03:59 | 20.81288 | 77.96626 | 37966 ft | 433 kts | 342° |
| 2026-05-07 04:00 | 20.87116 | 77.95189 | 37965 ft | 432 kts | 341° |
| 2026-05-07 04:00 | 20.92978 | 77.93752 | 37968 ft | 431 kts | 342° |
| 2026-05-07 04:01 | 20.98825 | 77.92315 | 37962 ft | 431 kts | 341° |
| 2026-05-07 04:01 | 21.04665 | 77.90870 | 37967 ft | 431 kts | 341° |
| 2026-05-07 04:02 | 21.10509 | 77.89432 | 37958 ft | 431 kts | 341° |
| 2026-05-07 04:02 | 21.16346 | 77.87995 | 37963 ft | 430 kts | 341° |
| 2026-05-07 04:03 | 21.22185 | 77.86556 | 37954 ft | 430 kts | 341° |
| 2026-05-07 04:03 | 21.28023 | 77.85109 | 37966 ft | 430 kts | 341° |
| 2026-05-07 04:04 | 21.33814 | 77.83670 | 37966 ft | 430 kts | 341° |
| 2026-05-07 04:04 | 21.39650 | 77.82227 | 37964 ft | 430 kts | 341° |
| 2026-05-07 04:05 | 21.45478 | 77.80785 | 37954 ft | 430 kts | 341° |
| 2026-05-07 04:05 | 21.51317 | 77.79341 | 37952 ft | 430 kts | 341° |
| 2026-05-07 04:06 | 21.57145 | 77.77896 | 37958 ft | 430 kts | 341° |
| 2026-05-07 04:06 | 21.62964 | 77.76448 | 37956 ft | 429 kts | 340° |
| 2026-05-07 04:07 | 21.68783 | 77.75002 | 37965 ft | 429 kts | 340° |
| 2026-05-07 04:07 | 21.74600 | 77.73549 | 37958 ft | 429 kts | 340° |
| 2026-05-07 04:08 | 21.80429 | 77.72098 | 37959 ft | 429 kts | 340° |
| 2026-05-07 04:08 | 21.86261 | 77.70655 | 37956 ft | 430 kts | 341° |
| 2026-05-07 04:09 | 21.92094 | 77.69205 | 37951 ft | 430 kts | 340° |
| 2026-05-07 04:09 | 21.97922 | 77.67754 | 37961 ft | 430 kts | 340° |
| 2026-05-07 04:10 | 22.03745 | 77.66291 | 37962 ft | 430 kts | 340° |
| 2026-05-07 04:10 | 22.09528 | 77.64816 | 37958 ft | 429 kts | 340° |
| 2026-05-07 04:11 | 22.15324 | 77.63303 | 37969 ft | 428 kts | 340° |
| 2026-05-07 04:11 | 22.21115 | 77.61795 | 37957 ft | 428 kts | 340° |
| 2026-05-07 04:12 | 22.26900 | 77.60289 | 37962 ft | 427 kts | 340° |
| 2026-05-07 04:12 | 22.32678 | 77.58778 | 37964 ft | 427 kts | 340° |
| 2026-05-07 04:13 | 22.38457 | 77.57265 | 37960 ft | 427 kts | 340° |
| 2026-05-07 04:13 | 22.44227 | 77.55757 | 37954 ft | 426 kts | 340° |
| 2026-05-07 04:14 | 22.49953 | 77.54267 | 37962 ft | 426 kts | 340° |
| 2026-05-07 04:14 | 22.55714 | 77.52763 | 37969 ft | 425 kts | 340° |
| 2026-05-07 04:15 | 22.61466 | 77.51257 | 37966 ft | 425 kts | 340° |
| 2026-05-07 04:15 | 22.67212 | 77.49755 | 37964 ft | 424 kts | 340° |
| 2026-05-07 04:16 | 22.72951 | 77.48255 | 37967 ft | 424 kts | 340° |
| 2026-05-07 04:16 | 22.78681 | 77.46750 | 37978 ft | 423 kts | 340° |
| 2026-05-07 04:17 | 22.84402 | 77.45245 | 37979 ft | 422 kts | 340° |
| 2026-05-07 04:17 | 22.90108 | 77.43746 | 37978 ft | 422 kts | 340° |
| 2026-05-07 04:18 | 22.95811 | 77.42243 | 37978 ft | 421 kts | 339° |
| 2026-05-07 04:18 | 23.01503 | 77.40749 | 37977 ft | 420 kts | 339° |
| 2026-05-07 04:19 | 23.07181 | 77.39253 | 37971 ft | 419 kts | 339° |
| 2026-05-07 04:19 | 23.12817 | 77.37769 | 37967 ft | 419 kts | 339° |
| 2026-05-07 04:20 | 23.18491 | 77.36274 | 37977 ft | 420 kts | 339° |
| 2026-05-07 04:20 | 23.24165 | 77.34773 | 37968 ft | 419 kts | 339° |
| 2026-05-07 04:21 | 23.32885 | 77.33447 | 37970 ft | 428 kts | 350° |
| 2026-05-07 04:21 | 23.38846 | 77.33174 | 37967 ft | 428 kts | 350° |
| 2026-05-07 04:22 | 23.44791 | 77.32893 | 37973 ft | 427 kts | 349° |
| 2026-05-07 04:22 | 23.50730 | 77.32615 | 37968 ft | 427 kts | 350° |
| 2026-05-07 04:23 | 23.56669 | 77.32340 | 37971 ft | 427 kts | 349° |
| 2026-05-07 04:23 | 23.62597 | 77.32064 | 37977 ft | 426 kts | 349° |
| 2026-05-07 04:24 | 23.68518 | 77.31787 | 37978 ft | 426 kts | 349° |
| 2026-05-07 04:24 | 23.74399 | 77.31512 | 37978 ft | 426 kts | 349° |
| 2026-05-07 04:25 | 23.80320 | 77.31233 | 37966 ft | 426 kts | 349° |
| 2026-05-07 04:25 | 23.85243 | 77.31005 | 37960 ft | 426 kts | 349° |
| 2026-05-07 04:26 | 23.92162 | 77.30685 | 37967 ft | 425 kts | 349° |
| 2026-05-07 04:26 | 23.98076 | 77.30406 | 37975 ft | 425 kts | 349° |
| 2026-05-07 04:27 | 24.02993 | 77.30171 | 37965 ft | 425 kts | 349° |
| 2026-05-07 04:27 | 24.08900 | 77.29894 | 37967 ft | 424 kts | 349° |
| 2026-05-07 04:28 | 24.14801 | 77.29617 | 37973 ft | 424 kts | 349° |
| 2026-05-07 04:28 | 24.20697 | 77.29341 | 37963 ft | 424 kts | 349° |
| 2026-05-07 04:29 | 24.26586 | 77.29064 | 37975 ft | 423 kts | 349° |
| 2026-05-07 04:29 | 24.32463 | 77.28785 | 37970 ft | 423 kts | 349° |
| 2026-05-07 04:30 | 24.38298 | 77.28509 | 37962 ft | 422 kts | 349° |
| 2026-05-07 04:30 | 24.44172 | 77.28234 | 37968 ft | 422 kts | 349° |
| 2026-05-07 04:31 | 24.50049 | 77.27951 | 37965 ft | 422 kts | 349° |
| 2026-05-07 04:31 | 24.55924 | 77.27667 | 37971 ft | 423 kts | 349° |
| 2026-05-07 04:32 | 24.61798 | 77.27392 | 37971 ft | 423 kts | 349° |
| 2026-05-07 04:32 | 24.67678 | 77.27121 | 37974 ft | 423 kts | 349° |
| 2026-05-07 04:33 | 24.73558 | 77.26849 | 37971 ft | 423 kts | 349° |
| 2026-05-07 04:33 | 24.79445 | 77.26594 | 37967 ft | 423 kts | 349° |
| 2026-05-07 04:34 | 24.85326 | 77.26347 | 37977 ft | 423 kts | 349° |
| 2026-05-07 04:34 | 24.91207 | 77.26097 | 37976 ft | 423 kts | 349° |
| 2026-05-07 04:35 | 24.97093 | 77.25857 | 37967 ft | 423 kts | 349° |
| 2026-05-07 04:35 | 25.02983 | 77.25608 | 37960 ft | 424 kts | 350° |
| 2026-05-07 04:36 | 25.08852 | 77.25389 | 37968 ft | 425 kts | 350° |
| 2026-05-07 04:36 | 25.14761 | 77.25186 | 37978 ft | 425 kts | 350° |
| 2026-05-07 04:37 | 25.20674 | 77.24982 | 37966 ft | 424 kts | 350° |
| 2026-05-07 04:37 | 25.26575 | 77.24772 | 37977 ft | 424 kts | 350° |
| 2026-05-07 04:38 | 25.32476 | 77.24556 | 37978 ft | 424 kts | 350° |
| 2026-05-07 04:38 | 25.38381 | 77.24342 | 37977 ft | 424 kts | 350° |
| 2026-05-07 04:39 | 25.44241 | 77.24117 | 37965 ft | 423 kts | 350° |
| 2026-05-07 04:39 | 25.50134 | 77.23898 | 37971 ft | 423 kts | 350° |
| 2026-05-07 04:40 | 25.56019 | 77.23689 | 37968 ft | 423 kts | 350° |
| 2026-05-07 04:40 | 25.61915 | 77.23481 | 37973 ft | 424 kts | 350° |
| 2026-05-07 04:41 | 25.67812 | 77.23266 | 37970 ft | 423 kts | 350° |
| 2026-05-07 04:41 | 25.73700 | 77.23048 | 37965 ft | 423 kts | 350° |
| 2026-05-07 04:42 | 25.79585 | 77.22825 | 37957 ft | 423 kts | 350° |
| 2026-05-07 04:42 | 25.85479 | 77.22602 | 37961 ft | 424 kts | 350° |
| 2026-05-07 04:43 | 25.91350 | 77.22390 | 37955 ft | 425 kts | 350° |
| 2026-05-07 04:43 | 25.97261 | 77.22177 | 37967 ft | 426 kts | 350° |
| 2026-05-07 04:44 | 26.03183 | 77.21959 | 37971 ft | 425 kts | 350° |
| 2026-05-07 04:44 | 26.09099 | 77.21739 | 37962 ft | 425 kts | 350° |
| 2026-05-07 04:45 | 26.15008 | 77.21517 | 37956 ft | 425 kts | 350° |
| 2026-05-07 04:45 | 26.20928 | 77.21276 | 37865 ft | 430 kts | 350° |
| 2026-05-07 04:46 | 26.23939 | 77.21146 | 37686 ft | 433 kts | 350° |
| 2026-05-07 04:46 | 26.26956 | 77.21017 | 37727 ft | 436 kts | 350° |
| 2026-05-07 04:46 | 26.32995 | 77.20767 | 37714 ft | 437 kts | 350° |
| 2026-05-07 04:47 | 26.39070 | 77.20515 | 37638 ft | 437 kts | 350° |
| 2026-05-07 04:47 | 26.42153 | 77.20386 | 37066 ft | 437 kts | 350° |
| 2026-05-07 04:47 | 26.45139 | 77.20265 | 36659 ft | 433 kts | 351° |
| 2026-05-07 04:48 | 26.48135 | 77.20145 | 36222 ft | 429 kts | 351° |
| 2026-05-07 04:48 | 26.51106 | 77.20025 | 35788 ft | 425 kts | 351° |
| 2026-05-07 04:48 | 26.54053 | 77.19901 | 35333 ft | 422 kts | 351° |
| 2026-05-07 04:48 | 26.56979 | 77.19776 | 34885 ft | 419 kts | 351° |
| 2026-05-07 04:49 | 26.59887 | 77.19654 | 34422 ft | 416 kts | 351° |
| 2026-05-07 04:49 | 26.62775 | 77.19534 | 33967 ft | 413 kts | 351° |
| 2026-05-07 04:49 | 26.65641 | 77.19413 | 33501 ft | 410 kts | 351° |
| 2026-05-07 04:49 | 26.68481 | 77.19291 | 33038 ft | 407 kts | 351° |
| 2026-05-07 04:50 | 26.71299 | 77.19167 | 32576 ft | 404 kts | 351° |
| 2026-05-07 04:50 | 26.74100 | 77.19045 | 32133 ft | 401 kts | 351° |
| 2026-05-07 04:50 | 26.76875 | 77.18930 | 31682 ft | 398 kts | 351° |
| 2026-05-07 04:50 | 26.79628 | 77.18819 | 31248 ft | 394 kts | 351° |
| 2026-05-07 04:51 | 26.82363 | 77.18707 | 30818 ft | 391 kts | 351° |
| 2026-05-07 04:51 | 26.85070 | 77.18594 | 30400 ft | 388 kts | 351° |
| 2026-05-07 04:51 | 26.87764 | 77.18480 | 29991 ft | 385 kts | 351° |
| 2026-05-07 04:51 | 26.90437 | 77.18367 | 29583 ft | 382 kts | 351° |
| 2026-05-07 04:52 | 26.93081 | 77.18250 | 29197 ft | 378 kts | 351° |
| 2026-05-07 04:52 | 26.95696 | 77.18135 | 28814 ft | 375 kts | 351° |
| 2026-05-07 04:52 | 26.98292 | 77.18013 | 28441 ft | 373 kts | 351° |
| 2026-05-07 04:52 | 27.00879 | 77.17877 | 28061 ft | 371 kts | 351° |
| 2026-05-07 04:53 | 27.03439 | 77.18040 | 27686 ft | 379 kts | 7° |
| 2026-05-07 04:53 | 27.05908 | 77.19177 | 27307 ft | 392 kts | 27° |
| 2026-05-07 04:53 | 27.07963 | 77.21235 | 26929 ft | 402 kts | 46° |
| 2026-05-07 04:53 | 27.09602 | 77.23793 | 26559 ft | 404 kts | 51° |
| 2026-05-07 04:54 | 27.11180 | 77.26390 | 26188 ft | 401 kts | 51° |
| 2026-05-07 04:54 | 27.12651 | 77.29045 | 25812 ft | 403 kts | 61° |
| 2026-05-07 04:54 | 27.13728 | 77.31946 | 25430 ft | 402 kts | 65° |
| 2026-05-07 04:54 | 27.14743 | 77.34859 | 25106 ft | 397 kts | 65° |
| 2026-05-07 04:55 | 27.15766 | 77.37735 | 25102 ft | 396 kts | 61° |
| 2026-05-07 04:55 | 27.17179 | 77.40358 | 25100 ft | 389 kts | 45° |
| 2026-05-07 04:55 | 27.19116 | 77.42423 | 24972 ft | 380 kts | 29° |
| 2026-05-07 04:55 | 27.21426 | 77.43734 | 24722 ft | 367 kts | 12° |
| 2026-05-07 04:56 | 27.23889 | 77.44214 | 24470 ft | 356 kts | 356° |
| 2026-05-07 04:56 | 27.26311 | 77.43916 | 24216 ft | 347 kts | 341° |
| 2026-05-07 04:56 | 27.28495 | 77.42929 | 23973 ft | 340 kts | 326° |
| 2026-05-07 04:56 | 27.30434 | 77.41432 | 23726 ft | 337 kts | 321° |
| 2026-05-07 04:57 | 27.32337 | 77.39895 | 23474 ft | 336 kts | 322° |
| 2026-05-07 04:57 | 27.34239 | 77.38369 | 23225 ft | 335 kts | 322° |
| 2026-05-07 04:57 | 27.36131 | 77.36856 | 22977 ft | 333 kts | 322° |
| 2026-05-07 04:57 | 27.38021 | 77.35345 | 22726 ft | 332 kts | 322° |
| 2026-05-07 04:58 | 27.39897 | 77.33843 | 22476 ft | 331 kts | 322° |
| 2026-05-07 04:58 | 27.41772 | 77.32340 | 22249 ft | 329 kts | 322° |
| 2026-05-07 04:58 | 27.43634 | 77.30844 | 22164 ft | 328 kts | 322° |
| 2026-05-07 04:58 | 27.45495 | 77.29349 | 22176 ft | 329 kts | 322° |
| 2026-05-07 04:59 | 27.47355 | 77.27851 | 22175 ft | 329 kts | 322° |
| 2026-05-07 04:59 | 27.49219 | 77.26347 | 22180 ft | 329 kts | 322° |
| 2026-05-07 04:59 | 27.51078 | 77.24848 | 22177 ft | 329 kts | 322° |
| 2026-05-07 04:59 | 27.52943 | 77.23347 | 22175 ft | 329 kts | 322° |
| 2026-05-07 05:00 | 27.54806 | 77.21846 | 22181 ft | 329 kts | 322° |
| 2026-05-07 05:00 | 27.56667 | 77.20343 | 22181 ft | 329 kts | 322° |
| 2026-05-07 05:00 | 27.58530 | 77.18841 | 22186 ft | 329 kts | 322° |
| 2026-05-07 05:00 | 27.60390 | 77.17340 | 22194 ft | 329 kts | 322° |
| 2026-05-07 05:01 | 27.62306 | 77.15922 | 22196 ft | 331 kts | 330° |
| 2026-05-07 05:01 | 27.64472 | 77.15008 | 22189 ft | 335 kts | 343° |
| 2026-05-07 05:01 | 27.66774 | 77.14721 | 22201 ft | 341 kts | 357° |
| 2026-05-07 05:01 | 27.69135 | 77.15094 | 22200 ft | 347 kts | 11° |
| 2026-05-07 05:02 | 27.71463 | 77.15836 | 22188 ft | 348 kts | 11° |
| 2026-05-07 05:02 | 27.73794 | 77.16585 | 22196 ft | 348 kts | 11° |
| 2026-05-07 05:02 | 27.76124 | 77.17330 | 22195 ft | 348 kts | 11° |
| 2026-05-07 05:02 | 27.78453 | 77.18070 | 22200 ft | 348 kts | 11° |
| 2026-05-07 05:03 | 27.80785 | 77.18807 | 22191 ft | 348 kts | 11° |
| 2026-05-07 05:03 | 27.83119 | 77.19542 | 22197 ft | 348 kts | 11° |
| 2026-05-07 05:03 | 27.85449 | 77.20277 | 22195 ft | 348 kts | 11° |
| 2026-05-07 05:03 | 27.87784 | 77.21016 | 22094 ft | 348 kts | 11° |
| 2026-05-07 05:04 | 27.90121 | 77.21758 | 21576 ft | 348 kts | 11° |
| 2026-05-07 05:04 | 27.92430 | 77.22494 | 20889 ft | 343 kts | 11° |
| 2026-05-07 05:04 | 27.94718 | 77.23225 | 20130 ft | 339 kts | 11° |
| 2026-05-07 05:04 | 27.96975 | 77.23947 | 19406 ft | 335 kts | 11° |
| 2026-05-07 05:05 | 27.99199 | 77.24658 | 18694 ft | 330 kts | 11° |
| 2026-05-07 05:05 | 28.01394 | 77.25356 | 17989 ft | 325 kts | 11° |
| 2026-05-07 05:05 | 28.03559 | 77.26043 | 17281 ft | 322 kts | 11° |
| 2026-05-07 05:05 | 28.05713 | 77.26650 | 16564 ft | 316 kts | 5° |
| 2026-05-07 05:06 | 28.07878 | 77.26968 | 15848 ft | 312 kts | 3° |
| 2026-05-07 05:06 | 28.10023 | 77.27278 | 15131 ft | 310 kts | 3° |
| 2026-05-07 05:06 | 28.12154 | 77.27589 | 14439 ft | 307 kts | 4° |
| 2026-05-07 05:06 | 28.14234 | 77.27893 | 14060 ft | 303 kts | 4° |
| 2026-05-07 05:07 | 28.16320 | 77.28197 | 13883 ft | 302 kts | 4° |
| 2026-05-07 05:07 | 28.18406 | 77.28498 | 13693 ft | 302 kts | 4° |
| 2026-05-07 05:07 | 28.20485 | 77.28798 | 13502 ft | 301 kts | 4° |
| 2026-05-07 05:07 | 28.22557 | 77.29100 | 13323 ft | 300 kts | 4° |
| 2026-05-07 05:08 | 28.24627 | 77.29403 | 13137 ft | 300 kts | 4° |
| 2026-05-07 05:08 | 28.26692 | 77.29705 | 12956 ft | 298 kts | 4° |
| 2026-05-07 05:08 | 28.28746 | 77.30005 | 12743 ft | 297 kts | 4° |
| 2026-05-07 05:08 | 28.30800 | 77.30306 | 12559 ft | 297 kts | 4° |
| 2026-05-07 05:09 | 28.32855 | 77.30609 | 12380 ft | 297 kts | 4° |
| 2026-05-07 05:09 | 28.34898 | 77.30910 | 12220 ft | 292 kts | 4° |
| 2026-05-07 05:09 | 28.36877 | 77.31099 | 12095 ft | 278 kts | 351° |
| 2026-05-07 05:09 | 28.38651 | 77.30439 | 11933 ft | 264 kts | 323° |
| 2026-05-07 05:10 | 28.39875 | 77.28955 | 11797 ft | 259 kts | 297° |
| 2026-05-07 05:10 | 28.40432 | 77.27028 | 11642 ft | 255 kts | 284° |
| 2026-05-07 05:10 | 28.40854 | 77.25053 | 11451 ft | 256 kts | 284° |
| 2026-05-07 05:10 | 28.41276 | 77.23080 | 11261 ft | 259 kts | 284° |
| 2026-05-07 05:11 | 28.41703 | 77.21104 | 11086 ft | 256 kts | 284° |
| 2026-05-07 05:11 | 28.42116 | 77.19193 | 10983 ft | 241 kts | 284° |
| 2026-05-07 05:11 | 28.42500 | 77.17415 | 10878 ft | 224 kts | 284° |
| 2026-05-07 05:11 | 28.42861 | 77.15747 | 10516 ft | 218 kts | 284° |
| 2026-05-07 05:12 | 28.43223 | 77.14080 | 10085 ft | 211 kts | 284° |
| 2026-05-07 05:12 | 28.43563 | 77.12514 | 9708 ft | 203 kts | 283° |
| 2026-05-07 05:12 | 28.43894 | 77.10980 | 9340 ft | 197 kts | 283° |
| 2026-05-07 05:12 | 28.44217 | 77.09485 | 8976 ft | 193 kts | 283° |
| 2026-05-07 05:13 | 28.44532 | 77.08026 | 8643 ft | 187 kts | 282° |
| 2026-05-07 05:13 | 28.44840 | 77.06606 | 8329 ft | 183 kts | 282° |
| 2026-05-07 05:13 | 28.45040 | 77.05682 | 8106 ft | 181 kts | 282° |
| 2026-05-07 05:13 | 28.45338 | 77.04299 | 7796 ft | 181 kts | 282° |
| 2026-05-07 05:14 | 28.45632 | 77.02929 | 7612 ft | 176 kts | 282° |
| 2026-05-07 05:14 | 28.45916 | 77.01608 | 7444 ft | 169 kts | 282° |
| 2026-05-07 05:14 | 28.46190 | 77.00332 | 7265 ft | 163 kts | 281° |
| 2026-05-07 05:14 | 28.46457 | 76.99090 | 7087 ft | 162 kts | 281° |
| 2026-05-07 05:15 | 28.46722 | 76.97858 | 6899 ft | 160 kts | 281° |
| 2026-05-07 05:15 | 28.46983 | 76.96638 | 6712 ft | 158 kts | 281° |
| 2026-05-07 05:15 | 28.47244 | 76.95421 | 6544 ft | 159 kts | 281° |
| 2026-05-07 05:15 | 28.47504 | 76.94208 | 6366 ft | 158 kts | 281° |
| 2026-05-07 05:16 | 28.47763 | 76.92997 | 6197 ft | 157 kts | 281° |
| 2026-05-07 05:16 | 28.48023 | 76.91790 | 6024 ft | 158 kts | 280° |
| 2026-05-07 05:16 | 28.48283 | 76.90581 | 5847 ft | 158 kts | 281° |
| 2026-05-07 05:16 | 28.48541 | 76.89371 | 5679 ft | 157 kts | 281° |
| 2026-05-07 05:17 | 28.48800 | 76.88159 | 5510 ft | 156 kts | 281° |
| 2026-05-07 05:17 | 28.49053 | 76.86959 | 5467 ft | 158 kts | 281° |
| 2026-05-07 05:17 | 28.49360 | 76.85776 | 5385 ft | 159 kts | 295° |
| 2026-05-07 05:17 | 28.50043 | 76.84787 | 5326 ft | 162 kts | 320° |
| 2026-05-07 05:18 | 28.51047 | 76.84218 | 5188 ft | 164 kts | 347° |
| 2026-05-07 05:18 | 28.52168 | 76.84187 | 5007 ft | 162 kts | 6° |
| 2026-05-07 05:18 | 28.53293 | 76.84313 | 4855 ft | 163 kts | 6° |
| 2026-05-07 05:18 | 28.54425 | 76.84438 | 4732 ft | 163 kts | 6° |
| 2026-05-07 05:19 | 28.55550 | 76.84558 | 4576 ft | 161 kts | 6° |
| 2026-05-07 05:19 | 28.56665 | 76.84676 | 4419 ft | 161 kts | 6° |
| 2026-05-07 05:19 | 28.57731 | 76.85011 | 4254 ft | 159 kts | 31° |
| 2026-05-07 05:19 | 28.58550 | 76.85820 | 4086 ft | 155 kts | 57° |
| 2026-05-07 05:20 | 28.58992 | 76.86912 | 3928 ft | 152 kts | 81° |
| 2026-05-07 05:20 | 28.59004 | 76.88079 | 3787 ft | 149 kts | 104° |
| 2026-05-07 05:20 | 28.58769 | 76.89193 | 3645 ft | 143 kts | 105° |
| 2026-05-07 05:20 | 28.58536 | 76.90283 | 3498 ft | 141 kts | 106° |
| 2026-05-07 05:21 | 28.58308 | 76.91361 | 3356 ft | 139 kts | 105° |
| 2026-05-07 05:21 | 28.57853 | 76.93497 | 3168 ft | 139 kts | 106° |
| 2026-05-07 05:21 | 28.57627 | 76.94557 | 3006 ft | 138 kts | 105° |
| 2026-05-07 05:22 | 28.57402 | 76.95614 | 2834 ft | 137 kts | 105° |
| 2026-05-07 05:22 | 28.57179 | 76.96662 | 2665 ft | 135 kts | 105° |
| 2026-05-07 05:22 | 28.56959 | 76.97695 | 2481 ft | 134 kts | 105° |
| 2026-05-07 05:22 | 28.56741 | 76.98717 | 2311 ft | 132 kts | 105° |
| 2026-05-07 05:23 | 28.56525 | 76.99729 | 2130 ft | 132 kts | 105° |
| 2026-05-07 05:23 | 28.56311 | 77.00732 | 1961 ft | 130 kts | 105° |
| 2026-05-07 05:23 | 28.56098 | 77.01731 | 1784 ft | 130 kts | 105° |
| 2026-05-07 05:23 | 28.55886 | 77.02730 | 1616 ft | 130 kts | 105° |
| 2026-05-07 05:24 | 28.55675 | 77.03719 | 1438 ft | 129 kts | 104° |
| 2026-05-07 05:24 | 28.55458 | 77.04728 | 1266 ft | 130 kts | 104° |
| 2026-05-07 05:24 | 28.55245 | 77.05717 | 1103 ft | 132 kts | 107° |
| 2026-05-07 05:24 | 28.55032 | 77.06721 | 924 ft | 130 kts | 112° |
| 2026-05-07 05:25 | 28.54817 | 77.07727 | 753 ft | 131 kts | 107° |
| 2026-05-07 05:25 | 28.54640 | 77.08549 | 752 ft | 70 kts | 104° |
| 2026-05-07 05:25 | 28.54578 | 77.08812 | 753 ft | 24 kts | 106° |
| 2026-05-07 05:25 | 28.54523 | 77.09058 | 751 ft | 40 kts | 103° |
| 2026-05-07 05:26 | 28.54474 | 77.09366 | 750 ft | 31 kts | 82° |
| 2026-05-07 05:26 | 28.54517 | 77.09628 | 749 ft | 30 kts | 73° |
| 2026-05-07 05:26 | 28.54547 | 77.09736 | 751 ft | 8 kts | 72° |
| 2026-05-07 05:26 | 28.54568 | 77.09796 | 751 ft | 3 kts | 37° |
| 2026-05-07 05:27 | 28.54599 | 77.09798 | 751 ft | 6 kts | 6° |
| 2026-05-07 05:27 | 28.54647 | 77.09793 | 751 ft | 8 kts | 335° |
| 2026-05-07 05:27 | 28.54676 | 77.09730 | 751 ft | 11 kts | 284° |
| 2026-05-07 05:27 | 28.54696 | 77.09638 | 751 ft | 13 kts | 284° |
| 2026-05-07 05:28 | 28.54721 | 77.09524 | 749 ft | 16 kts | 284° |
| 2026-05-07 05:28 | 28.54750 | 77.09390 | 750 ft | 19 kts | 284° |
| 2026-05-07 05:28 | 28.54770 | 77.09302 | 751 ft | 9 kts | 284° |
| 2026-05-07 05:28 | 28.54804 | 77.09232 | 751 ft | 12 kts | 311° |
| 2026-05-07 05:29 | 28.54870 | 77.09184 | 748 ft | 7 kts | 329° |
| 2026-05-07 05:29 | 28.54919 | 77.09151 | 749 ft | 10 kts | 329° |
| 2026-05-07 05:29 | 28.54984 | 77.09108 | 751 ft | 12 kts | 329° |
| 2026-05-07 05:29 | 28.55066 | 77.09053 | 747 ft | 14 kts | 328° |
| 2026-05-07 05:30 | 28.55102 | 77.09011 | 751 ft | 5 kts | 278° |
| 2026-05-07 05:30 | 28.55092 | 77.08977 | 748 ft | 2 kts | 243° |
| 2026-05-07 05:30 | 28.55082 | 77.08957 | 751 ft | 2 kts | 240° |
| 2026-05-07 05:30 | 28.55080 | 77.08953 | 749 ft | 0 kts | 240° |
| 2026-05-07 05:41 | 28.55080 | 77.08954 | 751 ft | 0 kts | 240° |
| 2026-05-07 05:45 | 28.55081 | 77.08954 | 747 ft | 0 kts | 240° |